createdAt,value
2023-03-28T00:00:49.835Z,1.00
2023-03-28T00:03:19.372Z,1.00
2023-03-28T00:05:49.240Z,0.80
2023-03-28T00:08:18.533Z,0.90
2023-03-28T00:10:46.477Z,0.80
2023-03-28T00:13:14.793Z,0.80
2023-03-28T00:15:43.291Z,0.93
2023-03-28T00:18:11.810Z,0.83
2023-03-28T00:20:42.842Z,1.00
2023-03-28T00:23:12.219Z,0.73
2023-03-28T00:25:43.594Z,0.70
2023-03-28T00:28:10.770Z,1.00
2023-03-28T00:30:38.083Z,0.90
2023-03-28T00:33:06.260Z,0.90
2023-03-28T00:35:34.964Z,1.20
2023-03-28T00:38:02.160Z,1.13
2023-03-28T00:40:30.972Z,1.00
2023-03-28T00:42:58.197Z,1.37
2023-03-28T00:45:27.138Z,1.20
2023-03-28T00:48:02.268Z,0.80
2023-03-28T00:50:36.695Z,1.20
2023-03-28T00:53:10.466Z,1.70
2023-03-28T00:55:47.683Z,1.23
2023-03-28T00:58:24.262Z,1.10
2023-03-28T01:00:55.527Z,0.93
2023-03-28T01:03:28.140Z,1.30
2023-03-28T01:05:57.172Z,0.77
2023-03-28T01:08:41.270Z,0.90
2023-03-28T01:11:10.340Z,1.00
2023-03-28T01:13:42.227Z,1.00
2023-03-28T01:16:12.826Z,1.20
2023-03-28T01:18:41.768Z,0.80
2023-03-28T01:21:28.349Z,0.90
2023-03-28T01:24:11.936Z,1.10
2023-03-28T01:27:17.425Z,0.77
2023-03-28T01:30:03.365Z,0.73
2023-03-28T01:33:08.365Z,0.80
2023-03-28T01:36:00.660Z,0.60
2023-03-28T01:38:47.518Z,0.70
2023-03-28T01:41:31.713Z,1.00
2023-03-28T01:44:18.897Z,0.80
2023-03-28T01:47:04.771Z,0.83
2023-03-28T01:49:47.210Z,0.90
2023-03-28T01:52:17.422Z,0.90
2023-03-28T01:54:52.455Z,0.80
2023-03-28T01:57:23.629Z,0.80
2023-03-28T02:00:13.762Z,1.17
2023-03-28T02:03:06.204Z,1.10
2023-03-28T02:05:39.807Z,0.97
2023-03-28T02:08:13.589Z,0.90
2023-03-28T02:10:49.872Z,0.80
2023-03-28T02:13:48.160Z,0.90
2023-03-28T02:16:41.635Z,0.80
2023-03-28T02:19:27.174Z,0.80
2023-03-28T02:22:35.099Z,0.70
2023-03-28T02:25:18.564Z,0.70
2023-03-28T02:28:01.525Z,0.63
2023-03-28T02:30:47.627Z,1.00
2023-03-28T02:33:38.109Z,0.70
2023-03-28T02:36:30.629Z,0.70
2023-03-28T02:39:23.069Z,0.90
2023-03-28T02:42:20.871Z,0.90
2023-03-28T02:45:12.576Z,1.10
2023-03-28T02:48:11.607Z,1.20
2023-03-28T02:50:55.486Z,0.87
2023-03-28T02:53:27.343Z,0.87
2023-03-28T02:56:22.018Z,0.90
2023-03-28T02:59:14.968Z,0.80
2023-03-28T03:01:43.085Z,1.00
2023-03-28T03:04:10.572Z,1.00
2023-03-28T03:06:39.181Z,1.23
2023-03-28T03:09:06.628Z,1.03
2023-03-28T03:11:33.677Z,0.90
2023-03-28T03:14:00.949Z,0.70
2023-03-28T03:16:30.000Z,0.73
2023-03-28T03:18:58.748Z,0.90
2023-03-28T03:21:26.347Z,1.20
2023-03-28T03:23:53.468Z,0.97
2023-03-28T03:26:20.836Z,0.90
2023-03-28T03:29:14.087Z,0.90
2023-03-28T03:31:41.858Z,0.90
2023-03-28T03:34:33.973Z,1.00
2023-03-28T03:37:02.492Z,0.80
2023-03-28T03:39:30.108Z,0.90
2023-03-28T03:41:57.588Z,0.90
2023-03-28T03:44:24.750Z,0.90
2023-03-28T03:46:52.595Z,0.90
2023-03-28T03:49:19.752Z,1.20
2023-03-28T03:51:47.071Z,1.00
2023-03-28T03:54:17.139Z,0.90
2023-03-28T03:56:44.462Z,0.73
2023-03-28T03:59:12.701Z,0.90
2023-03-28T04:01:41.794Z,0.83
2023-03-28T04:04:40.591Z,0.80
2023-03-28T04:07:25.929Z,1.10
2023-03-28T04:09:56.996Z,0.80
2023-03-28T04:12:27.151Z,0.90
2023-03-28T04:14:55.913Z,1.10
2023-03-28T04:17:44.317Z,0.97
2023-03-28T04:20:18.522Z,1.03
2023-03-28T04:23:08.649Z,0.70
2023-03-28T04:25:37.670Z,1.10
2023-03-28T04:28:09.906Z,0.70
2023-03-28T04:30:44.524Z,0.77
2023-03-28T04:33:34.074Z,0.90
2023-03-28T04:36:04.643Z,0.90
2023-03-28T04:38:36.809Z,0.83
2023-03-28T04:41:18.643Z,1.00
2023-03-28T04:44:06.175Z,1.10
2023-03-28T04:46:41.100Z,1.10
2023-03-28T04:49:14.246Z,1.33
2023-03-28T04:51:41.605Z,1.00
2023-03-28T04:54:08.747Z,1.10
2023-03-28T04:56:51.173Z,1.23
2023-03-28T04:59:26.952Z,1.10
2023-03-28T05:01:56.638Z,1.07
2023-03-28T05:04:42.473Z,1.00
2023-03-28T05:07:10.419Z,1.10
2023-03-28T05:09:38.545Z,0.87
2023-03-28T05:12:06.240Z,1.13
2023-03-28T05:14:45.076Z,1.10
2023-03-28T05:17:16.253Z,1.10
2023-03-28T05:19:54.949Z,1.13
2023-03-28T05:22:24.644Z,1.53
2023-03-28T05:24:53.771Z,0.90
2023-03-28T05:27:21.853Z,0.80
2023-03-28T05:29:49.136Z,0.80
2023-03-28T05:32:17.592Z,0.97
2023-03-28T05:34:46.288Z,1.10
2023-03-28T05:37:13.932Z,0.90
2023-03-28T05:39:48.758Z,1.10
2023-03-28T05:42:16.517Z,0.97
2023-03-28T05:44:44.256Z,1.13
2023-03-28T05:47:32.465Z,1.20
2023-03-28T05:50:00.272Z,1.17
2023-03-28T05:52:27.710Z,1.00
2023-03-28T05:54:56.327Z,1.23
2023-03-28T05:57:24.313Z,1.30
2023-03-28T05:59:52.821Z,1.00
2023-03-28T06:02:23.714Z,1.33
2023-03-28T06:04:56.754Z,0.90
2023-03-28T06:07:35.281Z,0.80
2023-03-28T06:10:10.357Z,0.90
2023-03-28T06:12:38.331Z,0.83
2023-03-28T06:15:07.315Z,0.90
2023-03-28T06:17:38.031Z,0.93
2023-03-28T06:20:09.966Z,1.17
2023-03-28T06:22:38.457Z,0.83
2023-03-28T06:25:11.023Z,0.90
2023-03-28T06:27:38.547Z,1.00
2023-03-28T06:30:07.294Z,0.80
2023-03-28T06:32:42.571Z,0.90
2023-03-28T06:35:09.913Z,1.10
2023-03-28T06:37:37.789Z,0.97
2023-03-28T06:40:09.477Z,0.87
2023-03-28T06:42:36.867Z,0.90
2023-03-28T06:45:22.046Z,1.00
2023-03-28T06:47:54.653Z,1.30
2023-03-28T06:50:30.665Z,1.63
2023-03-28T06:53:00.187Z,1.57
2023-03-28T06:55:27.616Z,1.13
2023-03-28T06:57:55.971Z,1.20
2023-03-28T07:00:32.842Z,1.20
2023-03-28T07:03:36.000Z,1.03
2023-03-28T07:06:10.194Z,1.50
2023-03-28T07:08:37.903Z,1.90
2023-03-28T07:11:05.487Z,1.27
2023-03-28T07:13:33.108Z,1.30
2023-03-28T07:16:08.187Z,1.40
2023-03-28T07:18:35.808Z,1.53
2023-03-28T07:21:08.802Z,1.10
2023-03-28T07:23:36.614Z,1.13
2023-03-28T07:26:03.828Z,1.00
2023-03-28T07:28:31.175Z,1.10
2023-03-28T07:31:00.481Z,1.03
2023-03-28T07:33:36.191Z,1.00
2023-03-28T07:36:16.290Z,2.47
2023-03-28T07:38:48.873Z,1.23
2023-03-28T07:41:18.239Z,1.37
2023-03-28T07:43:45.706Z,1.57
2023-03-28T07:46:15.663Z,1.10
2023-03-28T07:48:43.660Z,1.37
2023-03-28T07:51:11.447Z,1.10
2023-03-28T07:53:39.238Z,1.13
2023-03-28T07:56:11.980Z,1.10
2023-03-28T07:59:17.645Z,1.10
2023-03-28T08:01:48.172Z,1.00
2023-03-28T08:04:15.476Z,1.20
2023-03-28T08:07:03.111Z,1.60
2023-03-28T08:09:30.397Z,1.25
2023-03-28T08:12:12.954Z,2.00
2023-03-28T08:14:40.121Z,1.65
2023-03-28T08:17:07.333Z,1.30
2023-03-28T08:19:34.580Z,1.02
2023-03-28T08:22:30.731Z,1.00
2023-03-28T08:25:13.090Z,1.38
2023-03-28T08:27:42.273Z,1.20
2023-03-28T08:30:12.404Z,1.23
2023-03-28T08:32:50.064Z,1.38
2023-03-28T08:35:17.453Z,0.77
2023-03-28T08:37:45.833Z,1.10
2023-03-28T08:40:18.860Z,1.08
2023-03-28T08:42:49.243Z,1.10
2023-03-28T08:45:36.786Z,1.02
2023-03-28T08:48:12.880Z,0.80
2023-03-28T08:51:01.285Z,1.23
2023-03-28T08:54:14.755Z,1.45
2023-03-28T08:56:53.273Z,0.90
2023-03-28T08:59:44.297Z,1.10
2023-03-28T09:02:21.792Z,1.60
2023-03-28T09:04:50.782Z,1.20
2023-03-28T09:07:35.890Z,1.30
2023-03-28T09:10:18.917Z,1.83
2023-03-28T09:13:06.864Z,1.33
2023-03-28T09:15:40.382Z,1.13
2023-03-28T09:18:24.182Z,1.75
2023-03-28T09:20:59.294Z,1.42
2023-03-28T09:23:47.828Z,1.45
2023-03-28T09:26:27.874Z,1.35
2023-03-28T09:29:18.103Z,1.58
2023-03-28T09:31:48.186Z,1.40
2023-03-28T09:34:27.636Z,1.35
2023-03-28T09:37:35.502Z,0.80
2023-03-28T09:40:24.042Z,1.15
2023-03-28T09:43:30.364Z,1.00
2023-03-28T09:46:27.713Z,1.20
2023-03-28T09:49:03.273Z,1.60
2023-03-28T09:51:33.241Z,2.08
2023-03-28T09:54:07.684Z,1.88
2023-03-28T09:56:39.300Z,1.73
2023-03-28T09:59:29.170Z,5.05
2023-03-28T10:02:02.542Z,3.28
2023-03-28T10:04:38.834Z,3.13
2023-03-28T10:09:58.952Z,4.32
2023-03-28T10:12:34.643Z,2.50
2023-03-28T10:15:02.525Z,3.72
2023-03-28T10:17:53.031Z,2.22
2023-03-28T10:20:26.248Z,2.03
2023-03-28T10:22:57.936Z,2.15
2023-03-28T10:25:42.495Z,1.52
2023-03-28T10:28:17.893Z,2.10
2023-03-28T10:30:53.916Z,2.05
2023-03-28T10:33:26.068Z,2.25
2023-03-28T10:36:43.717Z,2.03
2023-03-28T10:39:35.666Z,2.80
2023-03-28T10:42:23.373Z,1.52
2023-03-28T10:45:03.722Z,1.30
2023-03-28T10:47:35.263Z,1.98
2023-03-28T10:50:29.066Z,1.73
2023-03-28T10:53:28.921Z,1.70
2023-03-28T10:56:07.462Z,1.45
2023-03-28T10:58:45.600Z,1.30
2023-03-28T11:01:42.042Z,1.63
2023-03-28T11:04:14.177Z,2.08
2023-03-28T11:06:54.753Z,1.77
2023-03-28T11:10:07.924Z,1.55
2023-03-28T11:12:58.949Z,1.58
2023-03-28T11:16:00.774Z,1.83
2023-03-28T11:18:38.618Z,2.00
2023-03-28T11:21:09.032Z,1.48
2023-03-28T11:23:45.938Z,1.55
2023-03-28T11:27:08.665Z,1.27
2023-03-28T11:30:20.504Z,2.85
2023-03-28T11:33:36.299Z,2.05
2023-03-28T11:36:19.075Z,1.88
2023-03-28T11:38:55.256Z,2.08
2023-03-28T11:41:30.072Z,3.20
2023-03-28T11:44:29.574Z,2.28
2023-03-28T11:46:59.529Z,2.33
2023-03-28T11:49:41.748Z,2.95
2023-03-28T11:53:04.164Z,3.10
2023-03-28T11:55:42.891Z,2.75
2023-03-28T11:58:26.325Z,1.85
2023-03-28T12:01:18.116Z,2.10
2023-03-28T12:04:12.232Z,2.55
2023-03-28T12:07:02.178Z,3.88
2023-03-28T12:09:59.292Z,2.17
2023-03-28T12:12:38.728Z,3.00
2023-03-28T12:15:21.502Z,2.33
2023-03-28T12:18:02.035Z,2.20
2023-03-28T12:20:35.440Z,4.57
2023-03-28T12:23:22.401Z,2.40
2023-03-28T12:26:26.457Z,3.83
2023-03-28T12:28:58.309Z,2.13
2023-03-28T12:31:31.780Z,3.85
2023-03-28T12:34:12.847Z,2.47
2023-03-28T12:37:13.014Z,2.08
2023-03-28T12:40:13.333Z,4.50
2023-03-28T12:42:45.347Z,2.20
2023-03-28T12:45:29.861Z,2.00
2023-03-28T12:48:19.706Z,2.58
2023-03-28T12:50:52.731Z,4.53
2023-03-28T12:53:22.019Z,2.55
2023-03-28T12:55:51.661Z,3.10
2023-03-28T12:58:35.051Z,2.67
2023-03-28T13:01:09.250Z,2.67
2023-03-28T13:03:58.795Z,4.28
2023-03-28T13:06:53.431Z,3.38
2023-03-28T13:09:35.692Z,2.53
2023-03-28T13:12:25.892Z,3.80
2023-03-28T13:15:09.284Z,3.85
2023-03-28T13:17:39.306Z,2.67
2023-03-28T13:20:27.730Z,4.78
2023-03-28T13:23:01.620Z,2.92
2023-03-28T13:25:38.931Z,3.38
2023-03-28T13:28:12.025Z,5.13
2023-03-28T13:30:44.006Z,2.92
2023-03-28T13:33:26.577Z,3.10
2023-03-28T13:35:59.864Z,3.20
2023-03-28T13:38:30.113Z,2.65
2023-03-28T13:41:09.846Z,3.83
2023-03-28T13:44:04.975Z,2.65
2023-03-28T13:47:04.999Z,3.95
2023-03-28T13:49:47.131Z,4.20
2023-03-28T13:52:24.566Z,3.25
2023-03-28T13:54:54.886Z,4.53
2023-03-28T13:57:26.433Z,3.58
2023-03-28T14:00:00.509Z,3.35
2023-03-28T14:02:31.828Z,3.80
2023-03-28T14:05:15.509Z,6.30
2023-03-28T14:07:42.848Z,3.13
2023-03-28T14:10:30.755Z,4.47
2023-03-28T14:13:06.158Z,4.00
2023-03-28T14:15:36.991Z,2.55
2023-03-28T14:18:04.501Z,5.07
2023-03-28T14:20:33.622Z,3.97
2023-03-28T14:23:01.602Z,3.40
2023-03-28T14:25:30.643Z,3.30
2023-03-28T14:28:06.492Z,2.85
2023-03-28T14:30:42.285Z,3.67
2023-03-28T14:33:14.494Z,5.20
2023-03-28T14:35:43.106Z,4.10
2023-03-28T14:38:26.761Z,2.83
2023-03-28T14:40:54.987Z,3.23
2023-03-28T14:43:31.352Z,4.68
2023-03-28T14:46:03.475Z,4.38
2023-03-28T14:48:31.477Z,4.78
2023-03-28T14:51:01.482Z,3.75
2023-03-28T14:53:31.710Z,2.78
2023-03-28T14:56:06.778Z,2.75
2023-03-28T14:58:37.197Z,3.53
2023-03-28T15:01:07.851Z,3.20
2023-03-28T15:03:39.416Z,4.38
2023-03-28T15:06:09.402Z,4.22
2023-03-28T15:08:38.720Z,3.45
2023-03-28T15:11:23.491Z,3.08
2023-03-28T15:13:59.379Z,4.90
2023-03-28T15:16:28.150Z,5.03
2023-03-28T15:19:09.325Z,4.20
2023-03-28T15:21:38.635Z,4.10
2023-03-28T15:24:10.297Z,2.78
2023-03-28T15:26:42.068Z,3.20
2023-03-28T15:29:12.804Z,4.13
2023-03-28T15:31:41.330Z,4.25
2023-03-28T15:34:18.884Z,6.13
2023-03-28T15:37:08.626Z,3.83
2023-03-28T15:39:36.231Z,2.65
2023-03-28T15:42:34.219Z,4.35
2023-03-28T15:45:01.397Z,3.38
2023-03-28T15:47:31.443Z,3.38
2023-03-28T15:50:06.865Z,2.95
2023-03-28T15:52:34.519Z,2.80
2023-03-28T15:55:03.395Z,3.28
2023-03-28T15:57:31.540Z,2.33
2023-03-28T16:00:00.827Z,3.42
2023-03-28T16:02:28.302Z,3.35
2023-03-28T16:05:11.071Z,3.22
2023-03-28T16:07:44.318Z,3.08
2023-03-28T16:10:13.400Z,6.93
2023-03-28T16:13:00.448Z,3.40
2023-03-28T16:15:51.315Z,4.03
2023-03-28T16:18:31.403Z,4.40
2023-03-28T16:21:01.626Z,2.88
2023-03-28T16:23:28.979Z,2.85
2023-03-28T16:25:56.107Z,3.85
2023-03-28T16:28:23.268Z,3.00
2023-03-28T16:30:50.717Z,2.50
2023-03-28T16:33:19.742Z,3.70
2023-03-28T16:35:46.983Z,3.03
2023-03-28T16:38:14.171Z,3.05
2023-03-28T16:40:42.325Z,2.63
2023-03-28T16:43:09.819Z,3.58
2023-03-28T16:45:38.149Z,3.78
2023-03-28T16:48:05.442Z,3.15
2023-03-28T16:50:32.721Z,3.38
2023-03-28T16:53:02.345Z,2.70
2023-03-28T16:55:29.477Z,2.83
2023-03-28T16:57:56.564Z,2.95
2023-03-28T17:00:30.823Z,3.60
2023-03-28T17:02:58.221Z,2.78
2023-03-28T17:05:25.440Z,2.63
2023-03-28T17:07:52.750Z,2.97
2023-03-28T17:10:19.977Z,3.15
2023-03-28T17:12:47.626Z,4.43
2023-03-28T17:15:14.727Z,5.00
2023-03-28T17:17:41.866Z,5.10
2023-03-28T17:20:09.390Z,5.57
2023-03-28T17:22:36.538Z,3.72
2023-03-28T17:25:04.708Z,3.40
2023-03-28T17:27:31.962Z,4.60
2023-03-28T17:29:59.146Z,4.95
2023-03-28T17:32:26.498Z,4.07
2023-03-28T17:34:53.792Z,3.80
2023-03-28T17:37:22.498Z,6.28
2023-03-28T17:39:49.654Z,4.85
2023-03-28T17:42:16.955Z,3.75
2023-03-28T17:44:44.195Z,4.28
2023-03-28T17:47:11.665Z,6.00
2023-03-28T17:49:38.864Z,4.90
2023-03-28T17:52:06.394Z,4.93
2023-03-28T17:54:33.606Z,5.63
2023-03-28T17:57:01.438Z,5.53
2023-03-28T17:59:29.381Z,6.88
2023-03-28T18:01:56.738Z,5.07
2023-03-28T18:04:23.922Z,5.53
2023-03-28T18:07:29.176Z,4.90
2023-03-28T18:10:01.013Z,7.43
2023-03-28T18:12:28.321Z,5.93
2023-03-28T18:14:58.956Z,6.95
2023-03-28T18:17:28.329Z,5.47
2023-03-28T18:19:55.573Z,4.80
2023-03-28T18:22:23.113Z,5.00
2023-03-28T18:24:50.532Z,4.57
2023-03-28T18:27:17.680Z,5.25
2023-03-28T18:29:45.394Z,3.63
2023-03-28T18:32:12.715Z,5.63
2023-03-28T18:34:41.493Z,3.47
2023-03-28T18:37:10.385Z,6.93
2023-03-28T18:39:37.777Z,3.83
2023-03-28T18:42:06.377Z,5.68
2023-03-28T18:44:35.811Z,5.22
2023-03-28T18:47:04.316Z,4.93
2023-03-28T18:49:32.228Z,4.72
2023-03-28T18:52:05.204Z,6.47
2023-03-28T18:54:34.096Z,5.30
2023-03-28T18:57:01.606Z,5.13
2023-03-28T18:59:30.052Z,5.93
2023-03-28T19:01:58.640Z,6.18
2023-03-28T19:04:26.693Z,4.80
2023-03-28T19:06:53.988Z,6.57
2023-03-28T19:09:21.392Z,4.60
2023-03-28T19:11:52.617Z,3.40
2023-03-28T19:14:19.834Z,7.35
2023-03-28T19:16:47.174Z,3.97
2023-03-28T19:19:14.415Z,4.82
2023-03-28T19:21:41.517Z,5.50
2023-03-28T19:24:08.988Z,4.18
2023-03-28T19:26:37.205Z,5.50
2023-03-28T19:29:04.381Z,3.25
2023-03-28T19:31:31.902Z,3.47
2023-03-28T19:33:59.253Z,4.82
2023-03-28T19:36:26.571Z,4.15
2023-03-28T19:38:53.667Z,3.35
2023-03-28T19:41:24.510Z,6.43
2023-03-28T19:43:51.887Z,4.60
2023-03-28T19:46:30.061Z,5.25
2023-03-28T19:49:01.510Z,5.35
2023-03-28T19:51:29.178Z,5.57
2023-03-28T19:53:56.637Z,3.55
2023-03-28T19:56:23.821Z,5.13
2023-03-28T19:58:52.195Z,4.15
2023-03-28T20:01:20.249Z,4.28
2023-03-28T20:03:52.242Z,4.93
2023-03-28T20:06:21.336Z,3.78
2023-03-28T20:08:48.810Z,6.07
2023-03-28T20:11:16.968Z,3.95
2023-03-28T20:13:44.589Z,3.65
2023-03-28T20:16:12.871Z,7.15
2023-03-28T20:18:40.191Z,4.63
2023-03-28T20:21:12.388Z,3.70
2023-03-28T20:23:39.965Z,5.05
2023-03-28T20:26:18.737Z,4.88
2023-03-28T20:28:50.385Z,4.28
2023-03-28T20:31:19.213Z,4.20
2023-03-28T20:33:46.550Z,4.68
2023-03-28T20:36:13.859Z,4.47
2023-03-28T20:38:41.246Z,4.75
2023-03-28T20:41:11.713Z,4.95
2023-03-28T20:43:40.971Z,5.75
2023-03-28T20:46:09.780Z,5.95
2023-03-28T20:48:37.096Z,4.80
2023-03-28T20:51:17.542Z,8.18
2023-03-28T20:53:50.564Z,5.85
2023-03-28T20:56:21.855Z,6.90
2023-03-28T20:58:50.863Z,4.82
2023-03-28T21:01:25.380Z,4.72
2023-03-28T21:03:58.891Z,4.13
2023-03-28T21:06:35.459Z,4.90
2023-03-28T21:09:06.520Z,4.10
2023-03-28T21:11:35.631Z,4.05
2023-03-28T21:14:03.793Z,4.93
2023-03-28T21:16:31.870Z,5.13
2023-03-28T21:19:02.839Z,4.50
2023-03-28T21:21:33.248Z,3.88
2023-03-28T21:24:01.733Z,4.78
2023-03-28T21:26:29.336Z,4.65
2023-03-28T21:28:56.493Z,4.90
2023-03-28T21:31:26.290Z,6.15
2023-03-28T21:33:57.783Z,4.78
2023-03-28T21:36:26.798Z,4.85
2023-03-28T21:38:54.555Z,3.78
2023-03-28T21:41:22.694Z,6.43
2023-03-28T21:43:53.869Z,4.65
2023-03-28T21:46:22.417Z,3.42
2023-03-28T21:48:50.093Z,4.20
2023-03-28T21:51:17.946Z,5.03
2023-03-28T21:53:45.955Z,5.75
2023-03-28T21:56:14.691Z,6.38
2023-03-28T21:58:42.538Z,5.45
2023-03-28T22:01:13.761Z,4.30
2023-03-28T22:03:41.379Z,5.85
2023-03-28T22:06:08.954Z,6.65
2023-03-28T22:08:36.215Z,5.35
2023-03-28T22:11:10.907Z,4.10
2023-03-28T22:13:38.933Z,6.63
2023-03-28T22:16:09.475Z,5.95
2023-03-28T22:18:36.885Z,7.63
2023-03-28T22:21:04.415Z,5.28
2023-03-28T22:23:32.524Z,4.80
2023-03-28T22:25:59.727Z,5.82
2023-03-28T22:28:27.145Z,6.60
2023-03-28T22:30:55.588Z,4.88
2023-03-28T22:33:24.206Z,4.82
2023-03-28T22:35:52.182Z,6.97
2023-03-28T22:38:19.666Z,5.80
2023-03-28T22:40:47.799Z,5.55
2023-03-28T22:43:16.256Z,5.70
2023-03-28T22:45:43.574Z,5.85
2023-03-28T22:48:17.214Z,5.88
2023-03-28T22:50:44.923Z,5.82
2023-03-28T22:53:14.262Z,7.65
2023-03-28T22:55:42.698Z,7.57
2023-03-28T22:58:09.758Z,6.47
2023-03-28T23:00:37.615Z,7.05
2023-03-28T23:03:04.957Z,4.47
2023-03-28T23:05:32.210Z,7.95
2023-03-28T23:08:00.232Z,6.78
2023-03-28T23:10:27.537Z,5.00
2023-03-28T23:12:54.708Z,5.82
2023-03-28T23:15:22.277Z,4.97
2023-03-28T23:17:49.591Z,4.88
2023-03-28T23:20:17.261Z,6.38
2023-03-28T23:22:46.458Z,6.38
2023-03-28T23:25:16.082Z,5.88
2023-03-28T23:27:43.681Z,6.28
2023-03-28T23:30:13.798Z,3.92
2023-03-28T23:32:41.285Z,4.30
2023-03-28T23:35:10.528Z,3.97
2023-03-28T23:37:41.313Z,5.60
2023-03-28T23:40:16.038Z,4.00
2023-03-28T23:42:45.027Z,5.72
2023-03-28T23:45:14.968Z,5.30
2023-03-28T23:47:43.722Z,4.20
2023-03-28T23:50:11.663Z,2.63
2023-03-28T23:52:38.855Z,3.45
2023-03-28T23:55:08.895Z,3.20
2023-03-28T23:57:36.495Z,3.08
